Flight Track Log - Related Links

Times and Time Zones

All times are in EDT time to prevent confusion due to time zone crossing. See the N390PH flight status page for this flight to view local times or setup timezone preferences in your user account.

Time Position Orientation Groundspeed Altitude Reporting Facility
EDT Latitude Longitude Course Direction KTS MPH feet Rate Location/Type
Sun 02:42:54 AM 38.0333 -78.5500 218° Southwest 90 104 3,700  Level Potomac TRACON
Sun 02:43:54 AM 38.0167 -78.5667 218° Southwest 84 97 4,300 550 Climbing Potomac TRACON
Sun 02:44:54 AM 38.0000 -78.5833 218° Southwest 82 94 4,800 545 Climbing Potomac TRACON
Sun 02:45:55 AM 37.9833 -78.6000 202° Southwest 83 96 5,400 595 Climbing Potomac TRACON
Sun 02:46:55 AM 37.9500 -78.6167 218° Southwest 88 101 6,000 300 Climbing Potomac TRACON
Sun 02:47:55 AM 37.9333 -78.6333 218° Southwest 97 112 6,000  Level Potomac TRACON
Sun 02:48:55 AM 37.9000 -78.6667 218° Southwest 106 122 6,000  Level Potomac TRACON
Sun 02:49:56 AM 37.8833 -78.6833 216° Southwest 110 127 6,000  Level Potomac TRACON
Sun 02:57:15 AM 37.6733 -78.8755 216° Southwest  Level FlightAware Approximate
Sun 02:58:15 AM 37.6445 -78.9016 216° Southwest  Level FlightAware Approximate
Sun 02:59:15 AM 37.6157 -78.9276 216° Southwest  Level FlightAware Approximate
Sun 03:00:15 AM 37.5869 -78.9536 216° Southwest  Level FlightAware Approximate
Sun 03:01:15 AM 37.5580 -78.9796 208° Southwest  Level FlightAware Approximate
Sun 03:02:15 AM 37.5269 -79.0007 217° Southwest  Level FlightAware Approximate
Sun 03:03:15 AM 37.4985 -79.0274 223° Southwest  Level FlightAware Approximate
Sun 03:04:15 AM 37.4731 -79.0577 215° Southwest  Level FlightAware Approximate
Sun 03:05:15 AM 37.4441 -79.0834 207° Southwest  Level FlightAware Approximate
Sun 03:06:15 AM 37.4128 -79.1039 218° Southwest  Level FlightAware Approximate
Sun 03:07:15 AM 37.3851 -79.1316 218° Southwest  Level FlightAware Approximate
Sun 03:08:15 AM 37.3573 -79.1593 218° Southwest  Level FlightAware Approximate
Sun 03:09:15 AM 37.3296 -79.1871 249° West  Level FlightAware Approximate
Sun 03:10:15 AM 37.3172 -79.2288 69° East  Level Estimated
Sun 03:11:15 AM 37.3296 -79.1871 218° Southwest  Level Estimated
Sun 03:12:15 AM 37.3167 -79.2000 218° Southwest  Level FlightAware Approximate

Login

Don't have an account? Register now (free) for customized features, flight alerts, and more!